sensor_id;sensor_type;location;lat;lon;timestamp;pressure;altitude;pressure_sealevel;temperature;humidity
44765;BME280;30484;52.382;5.260;2023-02-16T00:02:09;102410.66;;;9.09;100.00
44765;BME280;30484;52.382;5.260;2023-02-16T00:04:40;102412.03;;;9.30;100.00
44765;BME280;30484;52.382;5.260;2023-02-16T00:07:09;102410.28;;;9.29;100.00
44765;BME280;30484;52.382;5.260;2023-02-16T00:09:38;102411.56;;;9.09;100.00
44765;BME280;30484;52.382;5.260;2023-02-16T00:12:17;102403.91;;;8.91;100.00
44765;BME280;30484;52.382;5.260;2023-02-16T00:15:17;102417.41;;;9.28;100.00
44765;BME280;30484;52.382;5.260;2023-02-16T00:17:47;102417.69;;;9.13;100.00
44765;BME280;30484;52.382;5.260;2023-02-16T00:20:18;102414.69;;;8.83;100.00
44765;BME280;30484;52.382;5.260;2023-02-16T00:22:51;102404.28;;;9.16;100.00
44765;BME280;30484;52.382;5.260;2023-02-16T00:25:22;102406.38;;;9.00;100.00
44765;BME280;30484;52.382;5.260;2023-02-16T00:27:53;102409.84;;;9.05;100.00
44765;BME280;30484;52.382;5.260;2023-02-16T00:30:22;102414.84;;;9.24;100.00
44765;BME280;30484;52.382;5.260;2023-02-16T00:32:52;102407.44;;;8.91;100.00
44765;BME280;30484;52.382;5.260;2023-02-16T00:35:23;102400.91;;;9.09;100.00
44765;BME280;30484;52.382;5.260;2023-02-16T00:37:52;102409.22;;;8.91;100.00
44765;BME280;30484;52.382;5.260;2023-02-16T00:40:20;102404.81;;;8.90;100.00
44765;BME280;30484;52.382;5.260;2023-02-16T00:42:52;102410.56;;;9.13;100.00
44765;BME280;30484;52.382;5.260;2023-02-16T00:45:25;102403.97;;;9.33;100.00
44765;BME280;30484;52.382;5.260;2023-02-16T00:47:54;102394.00;;;8.96;100.00
44765;BME280;30484;52.382;5.260;2023-02-16T00:50:28;102399.06;;;9.11;100.00
44765;BME280;30484;52.382;5.260;2023-02-16T00:52:58;102400.91;;;9.09;100.00
44765;BME280;30484;52.382;5.260;2023-02-16T00:55:34;102404.44;;;9.10;100.00
44765;BME280;30484;52.382;5.260;2023-02-16T00:58:07;102400.91;;;9.06;100.00
44765;BME280;30484;52.382;5.260;2023-02-16T01:00:42;102391.81;;;9.20;100.00
44765;BME280;30484;52.382;5.260;2023-02-16T01:03:17;102389.22;;;9.13;100.00
44765;BME280;30484;52.382;5.260;2023-02-16T01:05:51;102389.72;;;8.87;100.00
44765;BME280;30484;52.382;5.260;2023-02-16T01:08:41;102386.13;;;8.90;100.00
44765;BME280;30484;52.382;5.260;2023-02-16T01:11:37;102383.16;;;8.58;100.00
44765;BME280;30484;52.382;5.260;2023-02-16T01:14:08;102388.63;;;8.99;100.00
44765;BME280;30484;52.382;5.260;2023-02-16T01:16:42;102380.56;;;9.04;100.00
44765;BME280;30484;52.382;5.260;2023-02-16T01:19:12;102376.47;;;8.84;100.00
44765;BME280;30484;52.382;5.260;2023-02-16T01:21:43;102380.44;;;8.60;100.00
44765;BME280;30484;52.382;5.260;2023-02-16T01:24:13;102369.47;;;8.78;100.00
44765;BME280;30484;52.382;5.260;2023-02-16T01:26:48;102372.28;;;8.71;100.00
44765;BME280;30484;52.382;5.260;2023-02-16T01:29:19;102375.06;;;8.63;100.00
44765;BME280;30484;52.382;5.260;2023-02-16T01:31:50;102377.13;;;8.97;100.00
44765;BME280;30484;52.382;5.260;2023-02-16T01:34:19;102383.34;;;8.96;100.00
44765;BME280;30484;52.382;5.260;2023-02-16T01:36:50;102378.69;;;8.59;100.00
44765;BME280;30484;52.382;5.260;2023-02-16T01:39:20;102385.81;;;9.07;100.00
44765;BME280;30484;52.382;5.260;2023-02-16T01:42:05;102376.28;;;8.93;100.00
44765;BME280;30484;52.382;5.260;2023-02-16T01:44:43;102375.25;;;9.02;100.00
44765;BME280;30484;52.382;5.260;2023-02-16T01:47:29;102374.78;;;8.78;100.00
44765;BME280;30484;52.382;5.260;2023-02-16T01:50:06;102375.75;;;9.21;100.00
44765;BME280;30484;52.382;5.260;2023-02-16T01:52:44;102373.84;;;8.83;100.00
44765;BME280;30484;52.382;5.260;2023-02-16T01:55:26;102364.84;;;8.88;100.00
44765;BME280;30484;52.382;5.260;2023-02-16T01:58:01;102370.19;;;8.88;100.00
44765;BME280;30484;52.382;5.260;2023-02-16T02:03:52;102362.53;;;9.17;100.00
44765;BME280;30484;52.382;5.260;2023-02-16T02:06:36;102356.22;;;9.21;100.00
44765;BME280;30484;52.382;5.260;2023-02-16T02:09:10;102357.91;;;9.25;100.00
44765;BME280;30484;52.382;5.260;2023-02-16T02:11:44;102352.38;;;9.34;100.00
44765;BME280;30484;52.382;5.260;2023-02-16T02:14:18;102355.09;;;9.32;100.00
44765;BME280;30484;52.382;5.260;2023-02-16T02:16:55;102352.38;;;9.34;100.00
44765;BME280;30484;52.382;5.260;2023-02-16T02:19:25;102350.88;;;8.75;100.00
44765;BME280;30484;52.382;5.260;2023-02-16T02:22:18;102336.03;;;9.07;100.00
44765;BME280;30484;52.382;5.260;2023-02-16T02:28:35;102333.84;;;9.28;100.00
44765;BME280;30484;52.382;5.260;2023-02-16T02:31:12;102325.56;;;9.40;100.00
44765;BME280;30484;52.382;5.260;2023-02-16T02:33:57;102320.81;;;9.14;100.00
44765;BME280;30484;52.382;5.260;2023-02-16T02:36:37;102331.53;;;9.53;100.00
44765;BME280;30484;52.382;5.260;2023-02-16T02:39:23;102322.16;;;9.35;100.00
44765;BME280;30484;52.382;5.260;2023-02-16T02:41:57;102331.19;;;9.68;100.00
44765;BME280;30484;52.382;5.260;2023-02-16T02:44:39;102325.13;;;9.20;100.00
44765;BME280;30484;52.382;5.260;2023-02-16T02:47:11;102311.72;;;9.65;100.00
44765;BME280;30484;52.382;5.260;2023-02-16T02:49:48;102319.00;;;9.57;100.00
44765;BME280;30484;52.382;5.260;2023-02-16T02:52:17;102310.16;;;9.53;100.00
44765;BME280;30484;52.382;5.260;2023-02-16T02:54:48;102315.00;;;9.76;100.00
44765;BME280;30484;52.382;5.260;2023-02-16T02:57:38;102304.09;;;9.48;100.00
44765;BME280;30484;52.382;5.260;2023-02-16T03:00:31;102304.25;;;9.79;100.00
44765;BME280;30484;52.382;5.260;2023-02-16T03:03:16;102307.34;;;9.61;100.00
44765;BME280;30484;52.382;5.260;2023-02-16T03:05:52;102309.63;;;9.37;100.00
44765;BME280;30484;52.382;5.260;2023-02-16T03:08:26;102302.72;;;9.69;100.00
44765;BME280;30484;52.382;5.260;2023-02-16T03:11:02;102307.28;;;9.64;100.00
44765;BME280;30484;52.382;5.260;2023-02-16T03:13:54;102302.28;;;9.86;100.00
44765;BME280;30484;52.382;5.260;2023-02-16T03:16:30;102292.88;;;9.71;100.00
44765;BME280;30484;52.382;5.260;2023-02-16T03:19:02;102295.97;;;9.53;100.00
44765;BME280;30484;52.382;5.260;2023-02-16T03:21:51;102294.56;;;9.75;100.00
44765;BME280;30484;52.382;5.260;2023-02-16T03:24:38;102289.59;;;9.96;100.00
44765;BME280;30484;52.382;5.260;2023-02-16T03:27:27;102285.41;;;9.85;100.00
44765;BME280;30484;52.382;5.260;2023-02-16T03:30:15;102291.50;;;9.92;100.00
44765;BME280;30484;52.382;5.260;2023-02-16T03:32:48;102297.94;;;10.19;100.00
44765;BME280;30484;52.382;5.260;2023-02-16T03:35:17;102295.06;;;9.91;100.00
44765;BME280;30484;52.382;5.260;2023-02-16T03:37:47;102296.34;;;10.12;100.00
44765;BME280;30484;52.382;5.260;2023-02-16T03:40:17;102296.84;;;9.92;100.00
44765;BME280;30484;52.382;5.260;2023-02-16T03:43:03;102285.94;;;10.00;100.00
44765;BME280;30484;52.382;5.260;2023-02-16T03:45:36;102292.97;;;10.04;100.00
44765;BME280;30484;52.382;5.260;2023-02-16T03:48:11;102293.97;;;10.00;100.00
44765;BME280;30484;52.382;5.260;2023-02-16T03:50:43;102277.41;;;10.22;100.00
44765;BME280;30484;52.382;5.260;2023-02-16T03:53:12;102288.03;;;9.87;100.00
44765;BME280;30484;52.382;5.260;2023-02-16T03:55:46;102288.31;;;9.76;100.00
44765;BME280;30484;52.382;5.260;2023-02-16T03:58:20;102294.28;;;9.88;100.00
44765;BME280;30484;52.382;5.260;2023-02-16T04:00:51;102290.75;;;9.85;100.00
44765;BME280;30484;52.382;5.260;2023-02-16T04:03:22;102279.41;;;10.13;100.00
44765;BME280;30484;52.382;5.260;2023-02-16T04:05:52;102283.81;;;9.78;100.00
44765;BME280;30484;52.382;5.260;2023-02-16T04:08:22;102283.44;;;9.94;100.00
44765;BME280;30484;52.382;5.260;2023-02-16T04:10:52;102279.50;;;9.73;100.00
44765;BME280;30484;52.382;5.260;2023-02-16T04:13:24;102290.28;;;9.68;100.00
44765;BME280;30484;52.382;5.260;2023-02-16T04:15:53;102289.38;;;9.69;100.00
44765;BME280;30484;52.382;5.260;2023-02-16T04:18:25;102295.94;;;9.92;100.00
44765;BME280;30484;52.382;5.260;2023-02-16T04:20:55;102293.38;;;9.87;100.00
44765;BME280;30484;52.382;5.260;2023-02-16T04:23:26;102286.81;;;10.02;100.00
44765;BME280;30484;52.382;5.260;2023-02-16T04:25:56;102290.22;;;10.07;100.00
44765;BME280;30484;52.382;5.260;2023-02-16T04:28:25;102291.03;;;9.73;100.00
44765;BME280;30484;52.382;5.260;2023-02-16T04:30:53;102287.09;;;10.26;100.00
44765;BME280;30484;52.382;5.260;2023-02-16T04:33:26;102297.03;;;10.21;100.00
44765;BME280;30484;52.382;5.260;2023-02-16T04:35:55;102299.00;;;10.12;100.00
44765;BME280;30484;52.382;5.260;2023-02-16T04:38:24;102289.84;;;10.23;100.00
44765;BME280;30484;52.382;5.260;2023-02-16T04:40:54;102283.63;;;10.22;100.00
44765;BME280;30484;52.382;5.260;2023-02-16T04:43:23;102288.53;;;10.03;100.00
44765;BME280;30484;52.382;5.260;2023-02-16T04:45:53;102293.66;;;10.12;100.00
44765;BME280;30484;52.382;5.260;2023-02-16T04:48:22;102292.22;;;9.61;100.00
44765;BME280;30484;52.382;5.260;2023-02-16T04:50:52;102287.22;;;9.85;100.00
44765;BME280;30484;52.382;5.260;2023-02-16T04:53:22;102288.97;;;10.22;100.00
44765;BME280;30484;52.382;5.260;2023-02-16T04:55:51;102289.63;;;10.32;100.00
44765;BME280;30484;52.382;5.260;2023-02-16T04:58:20;102282.50;;;10.31;100.00
44765;BME280;30484;52.382;5.260;2023-02-16T05:00:50;102289.44;;;10.40;100.00
44765;BME280;30484;52.382;5.260;2023-02-16T05:03:21;102277.53;;;10.51;100.00
44765;BME280;30484;52.382;5.260;2023-02-16T05:05:51;102276.81;;;10.46;100.00
44765;BME280;30484;52.382;5.260;2023-02-16T05:08:21;102274.13;;;10.10;100.00
44765;BME280;30484;52.382;5.260;2023-02-16T05:10:50;102277.28;;;10.26;100.00
44765;BME280;30484;52.382;5.260;2023-02-16T05:13:34;102271.91;;;9.92;100.00
44765;BME280;30484;52.382;5.260;2023-02-16T05:16:20;102260.72;;;10.13;100.00
44765;BME280;30484;52.382;5.260;2023-02-16T05:18:51;102266.81;;;9.82;100.00
44765;BME280;30484;52.382;5.260;2023-02-16T05:21:26;102258.94;;;10.12;100.00
44765;BME280;30484;52.382;5.260;2023-02-16T05:23:59;102256.28;;;10.12;100.00
44765;BME280;30484;52.382;5.260;2023-02-16T05:26:32;102242.44;;;9.96;100.00
44765;BME280;30484;52.382;5.260;2023-02-16T05:29:04;102252.69;;;10.13;100.00
44765;BME280;30484;52.382;5.260;2023-02-16T05:31:34;102253.59;;;10.12;100.00
44765;BME280;30484;52.382;5.260;2023-02-16T05:34:03;102252.75;;;10.12;100.00
44765;BME280;30484;52.382;5.260;2023-02-16T05:36:34;102251.59;;;10.22;100.00
44765;BME280;30484;52.382;5.260;2023-02-16T05:39:04;102259.25;;;10.36;100.00
44765;BME280;30484;52.382;5.260;2023-02-16T05:41:34;102273.13;;;10.50;100.00
44765;BME280;30484;52.382;5.260;2023-02-16T05:44:08;102250.28;;;10.02;100.00
44765;BME280;30484;52.382;5.260;2023-02-16T05:46:47;102257.28;;;10.08;100.00
44765;BME280;30484;52.382;5.260;2023-02-16T05:49:17;102261.09;;;10.34;100.00
44765;BME280;30484;52.382;5.260;2023-02-16T05:51:49;102259.03;;;10.09;100.00
44765;BME280;30484;52.382;5.260;2023-02-16T05:54:20;102270.38;;;10.17;100.00
44765;BME280;30484;52.382;5.260;2023-02-16T05:56:52;102271.78;;;10.34;100.00
44765;BME280;30484;52.382;5.260;2023-02-16T05:59:25;102273.94;;;10.18;100.00
44765;BME280;30484;52.382;5.260;2023-02-16T06:01:58;102284.13;;;10.38;100.00
44765;BME280;30484;52.382;5.260;2023-02-16T06:04:28;102287.47;;;10.10;100.00
44765;BME280;30484;52.382;5.260;2023-02-16T06:07:03;102278.88;;;10.35;100.00
44765;BME280;30484;52.382;5.260;2023-02-16T06:09:35;102278.72;;;10.41;100.00
44765;BME280;30484;52.382;5.260;2023-02-16T06:12:08;102272.22;;;10.15;100.00
44765;BME280;30484;52.382;5.260;2023-02-16T06:14:41;102275.41;;;10.30;100.00
44765;BME280;30484;52.382;5.260;2023-02-16T06:17:24;102271.28;;;9.80;100.00
44765;BME280;30484;52.382;5.260;2023-02-16T06:19:56;102276.72;;;10.49;100.00
44765;BME280;30484;52.382;5.260;2023-02-16T06:22:27;102279.56;;;10.43;100.00
44765;BME280;30484;52.382;5.260;2023-02-16T06:24:57;102266.69;;;10.58;100.00
44765;BME280;30484;52.382;5.260;2023-02-16T06:27:29;102278.00;;;10.33;100.00
44765;BME280;30484;52.382;5.260;2023-02-16T06:29:59;102276.94;;;10.40;100.00
44765;BME280;30484;52.382;5.260;2023-02-16T06:32:29;102277.16;;;9.96;100.00
44765;BME280;30484;52.382;5.260;2023-02-16T06:35:14;102280.38;;;10.45;100.00
44765;BME280;30484;52.382;5.260;2023-02-16T06:37:48;102271.00;;;10.63;100.00
44765;BME280;30484;52.382;5.260;2023-02-16T06:40:18;102263.31;;;10.82;100.00
44765;BME280;30484;52.382;5.260;2023-02-16T06:42:48;102270.78;;;10.71;100.00
44765;BME280;30484;52.382;5.260;2023-02-16T06:45:19;102281.50;;;10.69;100.00
44765;BME280;30484;52.382;5.260;2023-02-16T06:47:48;102280.66;;;10.69;100.00
44765;BME280;30484;52.382;5.260;2023-02-16T06:50:17;102286.31;;;10.57;100.00
44765;BME280;30484;52.382;5.260;2023-02-16T06:52:48;102279.78;;;10.67;100.00
44765;BME280;30484;52.382;5.260;2023-02-16T06:55:33;102280.97;;;10.57;100.00
44765;BME280;30484;52.382;5.260;2023-02-16T06:58:06;102286.22;;;10.60;100.00
44765;BME280;30484;52.382;5.260;2023-02-16T07:00:37;102291.06;;;10.78;100.00
44765;BME280;30484;52.382;5.260;2023-02-16T07:03:08;102292.44;;;10.60;100.00
44765;BME280;30484;52.382;5.260;2023-02-16T07:05:37;102298.84;;;10.55;100.00
44765;BME280;30484;52.382;5.260;2023-02-16T07:08:08;102302.09;;;10.97;100.00
44765;BME280;30484;52.382;5.260;2023-02-16T07:10:41;102297.78;;;10.62;100.00
44765;BME280;30484;52.382;5.260;2023-02-16T07:13:17;102294.00;;;10.69;100.00
44765;BME280;30484;52.382;5.260;2023-02-16T07:15:49;102295.16;;;10.59;100.00
44765;BME280;30484;52.382;5.260;2023-02-16T07:18:41;102290.84;;;10.55;100.00
44765;BME280;30484;52.382;5.260;2023-02-16T07:21:11;102290.50;;;10.98;100.00
44765;BME280;30484;52.382;5.260;2023-02-16T07:23:43;102297.91;;;10.56;100.00
44765;BME280;30484;52.382;5.260;2023-02-16T07:26:12;102288.16;;;10.87;100.00
44765;BME280;30484;52.382;5.260;2023-02-16T07:28:44;102296.19;;;10.53;100.00
44765;BME280;30484;52.382;5.260;2023-02-16T07:31:15;102293.75;;;10.78;100.00
44765;BME280;30484;52.382;5.260;2023-02-16T07:33:53;102301.91;;;10.74;100.00
44765;BME280;30484;52.382;5.260;2023-02-16T07:36:24;102300.50;;;10.92;100.00
44765;BME280;30484;52.382;5.260;2023-02-16T07:38:55;102311.44;;;10.82;100.00
44765;BME280;30484;52.382;5.260;2023-02-16T07:41:24;102309.16;;;11.00;100.00
44765;BME280;30484;52.382;5.260;2023-02-16T07:43:53;102315.41;;;11.00;100.00
44765;BME280;30484;52.382;5.260;2023-02-16T07:46:24;102309.19;;;11.30;100.00
44765;BME280;30484;52.382;5.260;2023-02-16T07:48:53;102321.00;;;10.91;100.00
44765;BME280;30484;52.382;5.260;2023-02-16T07:51:27;102323.53;;;10.96;100.00
44765;BME280;30484;52.382;5.260;2023-02-16T07:54:33;102320.81;;;10.99;100.00
44765;BME280;30484;52.382;5.260;2023-02-16T07:57:03;102316.19;;;11.04;100.00
44765;BME280;30484;52.382;5.260;2023-02-16T07:59:33;102323.69;;;10.91;100.00
44765;BME280;30484;52.382;5.260;2023-02-16T08:02:02;102340.44;;;10.98;100.00
44765;BME280;30484;52.382;5.260;2023-02-16T08:04:44;102342.94;;;10.71;100.00
44765;BME280;30484;52.382;5.260;2023-02-16T08:07:18;102328.63;;;10.74;100.00
44765;BME280;30484;52.382;5.260;2023-02-16T08:09:50;102338.38;;;10.76;100.00
44765;BME280;30484;52.382;5.260;2023-02-16T08:12:24;102332.59;;;10.92;100.00
44765;BME280;30484;52.382;5.260;2023-02-16T08:14:54;102323.81;;;11.18;100.00
44765;BME280;30484;52.382;5.260;2023-02-16T08:17:23;102326.88;;;11.04;100.00
44765;BME280;30484;52.382;5.260;2023-02-16T08:19:53;102333.06;;;10.75;100.00
44765;BME280;30484;52.382;5.260;2023-02-16T08:22:26;102339.28;;;10.75;100.00
44765;BME280;30484;52.382;5.260;2023-02-16T08:25:13;102335.28;;;10.92;100.00
44765;BME280;30484;52.382;5.260;2023-02-16T08:27:43;102338.78;;;10.94;100.00
44765;BME280;30484;52.382;5.260;2023-02-16T08:30:16;102337.44;;;11.10;100.00
44765;BME280;30484;52.382;5.260;2023-02-16T08:32:47;102340.53;;;10.62;100.00
44765;BME280;30484;52.382;5.260;2023-02-16T08:35:20;102348.50;;;10.96;100.00
44765;BME280;30484;52.382;5.260;2023-02-16T08:37:51;102342.53;;;10.86;100.00
44765;BME280;30484;52.382;5.260;2023-02-16T08:40:24;102340.78;;;10.85;100.00
44765;BME280;30484;52.382;5.260;2023-02-16T08:42:53;102347.13;;;10.81;100.00
44765;BME280;30484;52.382;5.260;2023-02-16T08:45:23;102352.50;;;11.13;100.00
44765;BME280;30484;52.382;5.260;2023-02-16T08:47:54;102355.31;;;11.08;100.00
44765;BME280;30484;52.382;5.260;2023-02-16T08:50:24;102350.81;;;11.09;100.00
44765;BME280;30484;52.382;5.260;2023-02-16T08:52:54;102360.50;;;10.81;100.00
44765;BME280;30484;52.382;5.260;2023-02-16T08:55:27;102360.66;;;11.08;100.00
44765;BME280;30484;52.382;5.260;2023-02-16T08:57:57;102367.50;;;10.85;100.00
44765;BME280;30484;52.382;5.260;2023-02-16T09:00:28;102369.84;;;10.98;100.00
44765;BME280;30484;52.382;5.260;2023-02-16T09:03:05;102360.97;;;10.96;100.00
44765;BME280;30484;52.382;5.260;2023-02-16T09:05:34;102356.69;;;10.90;100.00
44765;BME280;30484;52.382;5.260;2023-02-16T09:08:04;102355.72;;;10.60;100.00
44765;BME280;30484;52.382;5.260;2023-02-16T09:10:37;102355.59;;;10.64;100.00
44765;BME280;30484;52.382;5.260;2023-02-16T09:13:16;102350.50;;;10.17;100.00
44765;BME280;30484;52.382;5.260;2023-02-16T09:15:49;102341.34;;;10.64;100.00
44765;BME280;30484;52.382;5.260;2023-02-16T09:18:20;102353.44;;;11.12;100.00
44765;BME280;30484;52.382;5.260;2023-02-16T09:20:53;102346.50;;;10.37;100.00
44765;BME280;30484;52.382;5.260;2023-02-16T09:23:24;102340.47;;;10.27;100.00
44765;BME280;30484;52.382;5.260;2023-02-16T09:26:11;102326.97;;;10.35;100.00
44765;BME280;30484;52.382;5.260;2023-02-16T09:28:56;102323.94;;;10.49;100.00
44765;BME280;30484;52.382;5.260;2023-02-16T09:32:02;102333.06;;;10.75;100.00
44765;BME280;30484;52.382;5.260;2023-02-16T09:34:52;102341.88;;;10.78;100.00
44765;BME280;30484;52.382;5.260;2023-02-16T09:37:24;102339.44;;;10.69;100.00
44765;BME280;30484;52.382;5.260;2023-02-16T09:40:11;102352.44;;;11.14;100.00
44765;BME280;30484;52.382;5.260;2023-02-16T09:43:11;102350.97;;;10.36;100.00
44765;BME280;30484;52.382;5.260;2023-02-16T09:45:47;102343.59;;;10.46;100.00
44765;BME280;30484;52.382;5.260;2023-02-16T09:48:26;102347.53;;;10.66;100.00
44765;BME280;30484;52.382;5.260;2023-02-16T09:51:01;102348.50;;;10.63;100.00
44765;BME280;30484;52.382;5.260;2023-02-16T09:53:37;102356.03;;;10.82;100.00
44765;BME280;30484;52.382;5.260;2023-02-16T09:56:17;102354.41;;;10.76;100.00
44765;BME280;30484;52.382;5.260;2023-02-16T09:59:03;102362.50;;;11.06;100.00
44765;BME280;30484;52.382;5.260;2023-02-16T10:01:43;102365.09;;;10.76;100.00
44765;BME280;30484;52.382;5.260;2023-02-16T10:04:41;102364.19;;;10.76;100.00
44765;BME280;30484;52.382;5.260;2023-02-16T10:07:28;102357.75;;;11.16;100.00
44765;BME280;30484;52.382;5.260;2023-02-16T10:10:15;102363.16;;;11.14;100.00
44765;BME280;30484;52.382;5.260;2023-02-16T10:13:07;102361.59;;;11.37;100.00
44765;BME280;30484;52.382;5.260;2023-02-16T10:15:59;102370.41;;;11.42;100.00
44765;BME280;30484;52.382;5.260;2023-02-16T10:18:34;102370.19;;;11.48;100.00
44765;BME280;30484;52.382;5.260;2023-02-16T10:21:35;102368.41;;;11.79;100.00
44765;BME280;30484;52.382;5.260;2023-02-16T10:24:15;102376.31;;;11.83;100.00
44765;BME280;30484;52.382;5.260;2023-02-16T10:27:06;102372.31;;;11.67;100.00
44765;BME280;30484;52.382;5.260;2023-02-16T10:29:44;102370.50;;;11.69;100.00
44765;BME280;30484;52.382;5.260;2023-02-16T10:32:25;102366.13;;;11.96;100.00
44765;BME280;30484;52.382;5.260;2023-02-16T10:35:15;102367.56;;;12.06;100.00
44765;BME280;30484;52.382;5.260;2023-02-16T10:37:57;102350.44;;;11.82;100.00
44765;BME280;30484;52.382;5.260;2023-02-16T10:40:49;102358.50;;;12.11;100.00
44765;BME280;30484;52.382;5.260;2023-02-16T10:43:46;102369.97;;;11.86;100.00
44765;BME280;30484;52.382;5.260;2023-02-16T10:46:24;102364.78;;;11.80;100.00
44765;BME280;30484;52.382;5.260;2023-02-16T10:48:55;102358.94;;;11.67;100.00
44765;BME280;30484;52.382;5.260;2023-02-16T10:51:36;102355.47;;;11.93;100.00
44765;BME280;30484;52.382;5.260;2023-02-16T10:54:33;102351.19;;;11.87;100.00
44765;BME280;30484;52.382;5.260;2023-02-16T10:57:06;102351.94;;;11.91;100.00
44765;BME280;30484;52.382;5.260;2023-02-16T10:59:46;102350.00;;;11.68;100.00
44765;BME280;30484;52.382;5.260;2023-02-16T11:02:18;102349.50;;;12.40;100.00
44765;BME280;30484;52.382;5.260;2023-02-16T11:04:52;102346.56;;;12.48;100.00
44765;BME280;30484;52.382;5.260;2023-02-16T11:07:33;102347.44;;;12.21;100.00
44765;BME280;30484;52.382;5.260;2023-02-16T11:10:20;102342.69;;;12.56;100.00
44765;BME280;30484;52.382;5.260;2023-02-16T11:12:53;102348.03;;;12.56;100.00
44765;BME280;30484;52.382;5.260;2023-02-16T11:15:38;102348.00;;;12.83;100.00
44765;BME280;30484;52.382;5.260;2023-02-16T11:18:30;102343.28;;;12.65;100.00
44765;BME280;30484;52.382;5.260;2023-02-16T11:21:43;102335.16;;;12.93;100.00
44765;BME280;30484;52.382;5.260;2023-02-16T11:24:29;102332.09;;;12.78;100.00
44765;BME280;30484;52.382;5.260;2023-02-16T11:27:21;102319.22;;;12.63;100.00
44765;BME280;30484;52.382;5.260;2023-02-16T11:30:26;102331.81;;;12.86;100.00
44765;BME280;30484;52.382;5.260;2023-02-16T11:32:59;102319.34;;;13.09;100.00
44765;BME280;30484;52.382;5.260;2023-02-16T11:35:39;102327.44;;;12.58;100.00
44765;BME280;30484;52.382;5.260;2023-02-16T11:38:32;102317.28;;;12.41;100.00
44765;BME280;30484;52.382;5.260;2023-02-16T11:41:05;102314.59;;;12.67;100.00
44765;BME280;30484;52.382;5.260;2023-02-16T11:43:37;102308.84;;;12.52;100.00
44765;BME280;30484;52.382;5.260;2023-02-16T11:46:21;102311.19;;;12.36;100.00
44765;BME280;30484;52.382;5.260;2023-02-16T11:49:29;102308.53;;;13.36;100.00
44765;BME280;30484;52.382;5.260;2023-02-16T11:52:25;102307.91;;;13.27;100.00
44765;BME280;30484;52.382;5.260;2023-02-16T11:55:01;102284.72;;;13.03;100.00
44765;BME280;30484;52.382;5.260;2023-02-16T11:57:34;102293.81;;;13.46;100.00
44765;BME280;30484;52.382;5.260;2023-02-16T12:00:32;102288.97;;;13.78;100.00
44765;BME280;30484;52.382;5.260;2023-02-16T12:06:30;102278.22;;;14.00;100.00
44765;BME280;30484;52.382;5.260;2023-02-16T12:09:46;102264.44;;;14.08;100.00
44765;BME280;30484;52.382;5.260;2023-02-16T12:20:19;102241.44;;;14.23;100.00
44765;BME280;30484;52.382;5.260;2023-02-16T12:23:21;102239.41;;;14.48;100.00
44765;BME280;30484;52.382;5.260;2023-02-16T12:26:48;102229.59;;;14.47;100.00
44765;BME280;30484;52.382;5.260;2023-02-16T12:30:02;102228.72;;;14.26;100.00
44765;BME280;30484;52.382;5.260;2023-02-16T12:33:17;102221.16;;;14.96;100.00
44765;BME280;30484;52.382;5.260;2023-02-16T12:36:42;102215.31;;;15.61;100.00
44765;BME280;30484;52.382;5.260;2023-02-16T12:39:43;102209.63;;;15.31;100.00
44765;BME280;30484;52.382;5.260;2023-02-16T12:43:03;102204.19;;;14.94;100.00
44765;BME280;30484;52.382;5.260;2023-02-16T12:45:48;102211.34;;;15.32;100.00
44765;BME280;30484;52.382;5.260;2023-02-16T12:48:45;102196.66;;;14.82;100.00
44765;BME280;30484;52.382;5.260;2023-02-16T12:59:45;102203.13;;;15.91;100.00
44765;BME280;30484;52.382;5.260;2023-02-16T13:02:51;102203.50;;;16.18;100.00
44765;BME280;30484;52.382;5.260;2023-02-16T13:05:33;102203.66;;;15.97;100.00
44765;BME280;30484;52.382;5.260;2023-02-16T13:08:13;102190.25;;;15.42;100.00
44765;BME280;30484;52.382;5.260;2023-02-16T13:10:56;102194.84;;;15.76;100.00
44765;BME280;30484;52.382;5.260;2023-02-16T13:14:00;102190.09;;;15.45;100.00
44765;BME280;30484;52.382;5.260;2023-02-16T13:16:43;102180.97;;;15.11;100.00
44765;BME280;30484;52.382;5.260;2023-02-16T13:19:21;102181.38;;;15.40;100.00
44765;BME280;30484;52.382;5.260;2023-02-16T13:22:47;102173.31;;;14.63;100.00
44765;BME280;30484;52.382;5.260;2023-02-16T13:26:02;102160.16;;;15.14;100.00
44765;BME280;30484;52.382;5.260;2023-02-16T13:32:05;102156.91;;;14.49;100.00
44765;BME280;30484;52.382;5.260;2023-02-16T13:37:54;102141.44;;;14.54;100.00
44765;BME280;30484;52.382;5.260;2023-02-16T13:41:29;102122.88;;;15.24;100.00
44765;BME280;30484;52.382;5.260;2023-02-16T13:44:08;102133.97;;;15.18;100.00
44765;BME280;30484;52.382;5.260;2023-02-16T13:46:43;102128.69;;;14.78;100.00
44765;BME280;30484;52.382;5.260;2023-02-16T13:49:33;102128.47;;;14.83;100.00
44765;BME280;30484;52.382;5.260;2023-02-16T13:52:10;102130.50;;;14.97;100.00
44765;BME280;30484;52.382;5.260;2023-02-16T13:54:42;102130.44;;;14.40;100.00
44765;BME280;30484;52.382;5.260;2023-02-16T13:57:12;102131.72;;;15.63;100.00
44765;BME280;30484;52.382;5.260;2023-02-16T13:59:57;102133.91;;;15.37;100.00
44765;BME280;30484;52.382;5.260;2023-02-16T14:06:31;102120.59;;;15.16;100.00
44765;BME280;30484;52.382;5.260;2023-02-16T14:09:45;102118.56;;;15.02;100.00
44765;BME280;30484;52.382;5.260;2023-02-16T14:12:23;102099.38;;;14.91;100.00
44765;BME280;30484;52.382;5.260;2023-02-16T14:15:18;102094.34;;;15.02;100.00
44765;BME280;30484;52.382;5.260;2023-02-16T14:17:48;102097.84;;;14.86;100.00